East New Market, Maryland
Current Conditions -  °F | °C
As of 11:32 AM on Thursday 23 Oct 2014 (Local Time) from KCGE Reporting Station
Overcast Overcast  
Wind Chill: 59°   Ceiling: 3300
Heat Index: 59°   Visibility: 0mi
Dew Point: 45°   Wind: 14mph
Humidity: 59%   Direction: 310°NW
Pressure: 29.83"   Gusts: 24mph
Location:  38.6°N, 75.93°W
Report Text: KCGE 231532Z AUTO 31012G21KT M1/4SM OVC033 15/07 A2983 RMK AO1
Loading
Personal Weather Stations






























Interactive Weather Map
Tropical Storm Tracking
New forecast layout! Learn more

10-Day Weather Forecast

Advertisements
Track Severe Weather on mobile